Nearby METAR Reports

 

KSJC - San Jose, California, USA
Distance from station: СИ 14km
Актуализирано: 18/01/2018 08:53
Mist, Преобладаваща облачност
Mist, Преобладаваща облачност
 Вятър от ЮЮЗ
Вятър: ЮЮЗ 7 km/h
Температура: 12°C
Точка на оросяване: 12°C
Влажност: 100%
Барометър: 1022.4 hPa
Метео сводка: Mist
Clouds: Преобладаваща облачност
Visibility: 5 km
Cloud details: Few Clouds 30 m
Частична облачност 183 m
Преобладаваща облачност 274 m
2018/01/18 06:53 KSJC 180653Z 21004KT 3SM BR FEW001 SCT006 BKN009 12/12 A3019 RMK AO2 SLP221 T01220117
KNUQ - Moffett Nas/Mtn, California, USA
Distance from station: С 14km
Актуализирано: 18/01/2018 09:23
Mist, Облачно
Mist, Облачно
 Вятър от ЗЮЗ
Вятър: ЗЮЗ 6 km/h
Температура: 11°C
Точка на оросяване: 11°C
Влажност: 100%
Барометър: 1022.7 hPa
Метео сводка: Mist
Clouds: Облачно
Visibility: 5 km
Cloud details: Облачно 61 m
2018/01/18 07:23 KNUQ 180723Z 25003KT 3/4SM BR OVC002 11/11 A3020 RMK AO2 T01060106
 
KPAO - Palo Alto, California, USA
Distance from station: ССЗ 23km
Актуализирано: 18/01/2018 04:47
NOT Current
Haze, Преобладаваща облачност
Haze, Преобладаваща облачност
 Вятър от ЗСЗ
Вятър: ЗСЗ 13 km/h
Температура: 13°C
Точка на оросяване: 12°C
Влажност: 94%
Барометър: 1021.7 hPa
Метео сводка: Haze
Clouds: Преобладаваща облачност
Visibility: 10 km
Cloud details: Преобладаваща облачност 5486 m
2018/01/18 02:47 KPAO 180247Z 30007KT 6SM HZ BKN180 13/12 A3017
KRHV - San Jose/Reid, California, USA
Distance from station: ИСИ 19km
Актуализирано: 18/01/2018 07:47
NOT Current
Haze, Тихо и ясно
Haze, Тихо и ясно
 Вятър от calm
Вятър: Тихо
Температура: 13°C
Точка на оросяване: 12°C
Влажност: 94%
Барометър: 1021.3 hPa
Метео сводка: Haze
Clouds: Тихо и ясно
Visibility: 10 km
2018/01/18 05:47 KRHV 180547Z 00000KT 6SM HZ SKC 13/12 A3016
 
KOAK - Oakland, California, USA
Distance from station: ССЗ 50km
Актуализирано: 18/01/2018 08:53
Mist, Облачно
Mist, Облачно
 Вятър от ЗСЗ
Вятър: ЗСЗ 6 km/h
Температура: 11°C
Точка на оросяване: 11°C
Влажност: 100%
Барометър: 1022.7 hPa
Метео сводка: Mist
Clouds: Облачно
Visibility: 2 km
Cloud details: Few Clouds 30 m
Облачно 91 m
2018/01/18 06:53 KOAK 180653Z 30003KT 1/4SM BR FEW001 OVC003 11/11 A3020 RMK AO2 SFC VIS 1 1/2 SLP224 T01110111
KSQL - San Carlos Airpo, California, USA
Distance from station: СЗ 34km
Актуализирано: 18/01/2018 09:15
Mist, Облачно
Mist, Облачно
 Вятър от ЮЮИ
Вятър: ЮЮИ 6 km/h
Температура: 12°C
Точка на оросяване: 12°C
Влажност: 100%
Барометър: 1022.4 hPa
Метео сводка: Mist
Clouds: Облачно
Visibility: 5 km
Cloud details: Облачно 122 m
2018/01/18 07:15 KSQL 180715Z AUTO 15003KT 3SM BR OVC004 12/12 A3019 RMK AO2
 
KSFO - San Francisco, California, USA
Distance from station: СЗ 49km
Актуализирано: 18/01/2018 09:16
Mist, Облачно
Mist, Облачно
 Вятър от ЮИ
Вятър: ЮИ 6 km/h
Температура: 11°C
Точка на оросяване: 11°C
Влажност: 100%
Барометър: 1022 hPa
Метео сводка: Mist
Clouds: Облачно
Visibility: 3 km
Cloud details: Преобладаваща облачност 91 m
Облачно 183 m
2018/01/18 07:16 KSFO 180716Z 14003KT 2SM BR BKN003 OVC006 11/11 A3018 RMK AO2 T01110106
KE16 - San Martin, California, USA
Distance from station: ИЮИ 43km
Актуализирано: 18/01/2018 08:30
Mist, Облачно
Mist, Облачно
 Вятър от ССЗ
Вятър: ССЗ 15 km/h
Температура: 12°C
Точка на оросяване: 12°C
Влажност: 100%
Барометър: 1022.4 hPa
Метео сводка: Mist
Clouds: Облачно
Visibility: 10 km
Cloud details: Облачно 518 m
2018/01/18 06:30 KE16 180630Z AUTO 33008KT 6SM BR OVC017 12/12 A3019 RMK AO2
 
KWVI - Watsonville, California, USA
Distance from station: ЮЮИ 44km
Актуализирано: 18/01/2018 09:20
Fog, Облачно
Fog, Облачно
 Вятър от СЗ
Вятър: СЗ 6 km/h
Температура: 11°C
Точка на оросяване: 11°C
Влажност: 100%
Барометър: 1021.7 hPa
Метео сводка: Fog
Clouds: Облачно
Visibility: 2 km
Cloud details: Облачно 91 m
2018/01/18 07:20 KWVI 180720Z AUTO 32003KT 1/2SM FG VV003 11/11 A3017 RMK AO2 T01060106
KHAF - Half Moon Bay, California, USA
Distance from station: ЗСЗ 50km
Актуализирано: 18/01/2018 09:15
Mist, Преобладаваща облачност
Mist, Преобладаваща облачност
 Вятър от С
Вятър: С 6 km/h
Температура: 9°C
Точка на оросяване: 8°C
Влажност: 94%
Барометър: 1021 hPa
Метео сводка: Mist
Clouds: Преобладаваща облачност
Visibility: 8 km
Cloud details: Преобладаваща облачност 91 m
2018/01/18 07:15 KHAF 180715Z AUTO 01003KT 5SM BR BKN003 09/08 A3015 RMK AO2 P0001
 
KHWD - Hayward, California, USA
Distance from station: С 44km
Актуализирано: 18/01/2018 08:54
Mist, Тихо и ясно
Mist, Тихо и ясно
 Вятър от calm
Вятър: Тихо
Температура: 12°C
Точка на оросяване: 9°C
Влажност: 82%
Барометър: 1022.4 hPa
Метео сводка: Mist
Clouds: Тихо и ясно
Visibility: 8 km
2018/01/18 06:54 KHWD 180654Z 00000KT 5SM BR CLR 12/09 A3019 RMK AO2 SLP231 T01170094
KLVK - Livermore, California, USA
Distance from station: ССИ 51km
Актуализирано: 18/01/2018 08:53
Mist, Облачно
Mist, Облачно
 Вятър от Ю
Вятър: Ю 6 km/h
Температура: 11°C
Точка на оросяване: 11°C
Влажност: 100%
Барометър: 1022 hPa
Метео сводка: Mist
Clouds: Облачно
Visibility: 3 km
Cloud details: Облачно 91 m
2018/01/18 06:53 KLVK 180653Z AUTO 17003KT 2SM BR OVC003 11/11 A3018 RMK AO2 SLP219 T01110111